Time;durP1;ratioP1;P1;durP2;ratioP2;P2;SDS_P1;SDS_P2;PMS_P1;PMS_P2;Temp;Humidity;BMP_temperature;BMP_pressure;BME280_temperature;BME280_humidity;BME280_pressure;Samples;Min_cycle;Max_cycle;Signal;HPM_P1;HPM_P2
2022/09/30 00:01:36;;;;;;;;;;;;;;;8.91;93.65;95563.09;4899718;29;20338;-74
2022/09/30 00:04:02;;;;;;;;;;;;;;;8.92;94.10;95562.06;4899605;29;20406;-74
2022/09/30 00:06:29;;;;;;;;;;;;;;;8.92;93.86;95554.22;4899519;29;19948;-74
2022/09/30 00:08:56;;;;;;;;;;;;;;;8.91;94.07;95558.66;4899334;29;19959;-74
2022/09/30 00:11:29;;;;;;;;;;;;;;;8.90;93.70;95557.09;4899326;29;19975;-75
2022/09/30 00:13:57;;;;;;;;;;;;;;;8.91;94.13;95555.25;4899503;29;20422;-74
2022/09/30 00:16:24;;;;;;;;;;;;;;;8.90;93.60;95556.25;4899436;29;19955;-74
2022/09/30 00:18:50;;;;;;;;;;;;;;;8.88;93.25;95555.69;4899138;29;19968;-74
2022/09/30 00:21:16;;;;;;;;;;;;;;;8.87;93.82;95559.34;4899290;29;19955;-74
2022/09/30 00:23:43;;;;;;;;;;;;;;;8.84;93.50;95560.63;4899319;29;20396;-74
2022/09/30 00:26:13;;;;;;;;;;;;;;;8.85;93.58;95567.41;4899222;29;20326;-74
2022/09/30 00:28:39;;;;;;;;;;;;;;;8.86;93.79;95569.03;4899136;29;19951;-74
2022/09/30 00:31:07;;;;;;;;;;;;;;;8.86;93.75;95565.59;4899037;29;19995;-74
2022/09/30 00:33:33;;;;;;;;;;;;;;;8.88;93.72;95576.63;4899069;29;19956;-74
2022/09/30 00:36:00;;;;;;;;;;;;;;;8.89;93.48;95579.00;4898687;29;20334;-74
2022/09/30 00:38:26;;;;;;;;;;;;;;;8.90;93.38;95578.00;4899102;29;19956;-75
2022/09/30 00:40:52;;;;;;;;;;;;;;;8.90;93.01;95587.66;4898871;29;19950;-74
2022/09/30 00:43:19;;;;;;;;;;;;;;;8.88;93.29;95580.06;4899203;29;19963;-74
2022/09/30 00:45:50;;;;;;;;;;;;;;;8.87;93.51;95586.28;4897907;29;20425;-74
2022/09/30 00:48:21;;;;;;;;;;;;;;;8.88;93.88;95585.28;4898917;29;19958;-75
2022/09/30 00:50:54;;;;;;;;;;;;;;;8.89;93.78;95580.84;4889499;29;19978;-74
2022/09/30 00:53:28;;;;;;;;;;;;;;;8.89;93.48;95581.63;4898491;29;19956;-74
2022/09/30 00:56:03;;;;;;;;;;;;;;;8.90;93.89;95579.81;4898600;29;20431;-75
2022/09/30 00:58:44;;;;;;;;;;;;;;;8.89;93.77;95575.59;4898770;29;19962;-74
2022/09/30 01:01:10;;;;;;;;;;;;;;;8.89;94.01;95586.84;4889979;29;19963;-74
2022/09/30 01:03:40;;;;;;;;;;;;;;;8.88;93.96;95590.50;4898797;29;20065;-74
2022/09/30 01:06:06;;;;;;;;;;;;;;;8.87;94.31;95583.66;4898653;29;19953;-74
2022/09/30 01:08:34;;;;;;;;;;;;;;;8.87;94.29;95585.50;4898661;29;19963;-74
2022/09/30 01:11:00;;;;;;;;;;;;;;;8.86;93.99;95584.72;4898530;29;19975;-74
2022/09/30 01:13:27;;;;;;;;;;;;;;;8.86;93.96;95595.16;4898078;29;19955;-75
2022/09/30 01:15:53;;;;;;;;;;;;;;;8.87;94.70;95598.56;4899128;29;20066;-75
2022/09/30 01:18:28;;;;;;;;;;;;;;;8.88;94.61;95605.38;4898470;29;20440;-75
2022/09/30 01:21:12;;;;;;;;;;;;;;;8.89;93.97;95593.91;4898821;29;19952;-74
2022/09/30 01:23:56;;;;;;;;;;;;;;;8.89;93.71;95592.09;4891266;29;19961;-74
2022/09/30 01:26:35;;;;;;;;;;;;;;;8.90;94.33;95592.88;4898445;29;19963;-74
2022/09/30 01:29:10;;;;;;;;;;;;;;;8.91;94.25;95597.88;4898246;29;19946;-74
2022/09/30 01:31:55;;;;;;;;;;;;;;;8.90;94.05;95598.91;4898500;29;19986;-74
2022/09/30 01:34:31;;;;;;;;;;;;;;;8.88;94.46;95603.59;4888686;29;20324;-74
2022/09/30 01:37:05;;;;;;;;;;;;;;;8.88;94.86;95603.59;4898359;29;19959;-74
2022/09/30 01:39:37;;;;;;;;;;;;;;;8.88;94.65;95602.75;4898803;29;19952;-74
2022/09/30 01:42:05;;;;;;;;;;;;;;;8.87;94.88;95604.59;4897752;29;20416;-74
2022/09/30 01:44:38;;;;;;;;;;;;;;;8.86;94.86;95610.84;4898216;29;19956;-75
2022/09/30 01:47:10;;;;;;;;;;;;;;;8.86;94.71;95607.41;4898360;29;19960;-74
2022/09/30 01:49:42;;;;;;;;;;;;;;;8.85;95.00;95611.88;4898159;29;20409;-75
2022/09/30 01:52:16;;;;;;;;;;;;;;;8.85;95.22;95614.47;4898268;29;20304;-74
2022/09/30 01:54:45;;;;;;;;;;;;;;;8.85;95.20;95624.94;4898214;29;19948;-75
2022/09/30 01:57:10;;;;;;;;;;;;;;;8.86;95.08;95620.50;4897273;29;19954;-74
2022/09/30 01:59:41;;;;;;;;;;;;;;;8.85;95.26;95624.16;4898125;29;19959;-74
2022/09/30 02:02:19;;;;;;;;;;;;;;;8.86;95.30;95617.88;4897998;29;19957;-74
2022/09/30 02:04:50;;;;;;;;;;;;;;;8.85;95.51;95618.91;4898326;29;19958;-74
2022/09/30 02:07:21;;;;;;;;;;;;;;;8.84;95.30;95618.13;4897783;29;19958;-74
2022/09/30 02:09:49;;;;;;;;;;;;;;;8.81;94.86;95618.56;4898054;29;20331;-75
2022/09/30 02:12:19;;;;;;;;;;;;;;;8.78;94.87;95616.41;4898248;29;19960;-74
2022/09/30 02:14:48;;;;;;;;;;;;;;;8.74;94.94;95617.88;4898428;29;19955;-74
2022/09/30 02:17:27;;;;;;;;;;;;;;;8.72;95.59;95612.88;4898196;29;19961;-74
2022/09/30 02:19:58;;;;;;;;;;;;;;;8.70;95.28;95620.16;4898434;29;19961;-74
2022/09/30 02:22:39;;;;;;;;;;;;;;;8.72;95.62;95619.94;4898778;29;19962;-74
2022/09/30 02:25:07;;;;;;;;;;;;;;;8.71;95.74;95623.56;4901477;29;19949;-74
2022/09/30 02:27:40;;;;;;;;;;;;;;;8.70;95.48;95617.53;4901526;29;19960;-74
2022/09/30 02:30:08;;;;;;;;;;;;;;;8.71;95.55;95618.31;4901094;29;19969;-74
2022/09/30 02:32:37;;;;;;;;;;;;;;;8.70;95.61;95617.53;4901748;29;19986;-75
2022/09/30 02:35:06;;;;;;;;;;;;;;;8.71;95.51;95629.59;4890114;29;19951;-74
2022/09/30 02:37:35;;;;;;;;;;;;;;;8.71;95.63;95634.84;4901449;29;19956;-74
2022/09/30 02:40:10;;;;;;;;;;;;;;;8.70;95.62;95635.03;4901242;29;19954;-74
2022/09/30 02:42:38;;;;;;;;;;;;;;;8.70;95.48;95635.84;4900867;29;19953;-74
2022/09/30 02:45:07;;;;;;;;;;;;;;;8.70;95.60;95637.66;4900595;29;19963;-74
2022/09/30 02:47:39;;;;;;;;;;;;;;;8.69;95.70;95641.28;4901081;29;19954;-74
2022/09/30 02:50:11;;;;;;;;;;;;;;;8.68;95.56;95644.94;4900467;29;19970;-74
2022/09/30 02:52:44;;;;;;;;;;;;;;;8.68;95.73;95647.53;4900314;29;20356;-74
2022/09/30 02:55:19;;;;;;;;;;;;;;;8.66;95.45;95646.97;4900748;29;19953;-74
2022/09/30 02:57:53;;;;;;;;;;;;;;;8.66;95.72;95654.81;4900864;29;19954;-74
2022/09/30 03:00:19;;;;;;;;;;;;;;;8.63;95.85;95657.84;4900688;29;19961;-75
2022/09/30 03:02:45;;;;;;;;;;;;;;;8.63;95.69;95655.25;4899901;29;20031;-74
2022/09/30 03:05:11;;;;;;;;;;;;;;;8.62;95.72;95651.84;4900740;29;20064;-74
2022/09/30 03:07:39;;;;;;;;;;;;;;;8.61;95.86;95646.84;4900894;29;20387;-74
2022/09/30 03:10:15;;;;;;;;;;;;;;;8.60;95.77;95656.50;4900614;29;19972;-75
2022/09/30 03:12:44;;;;;;;;;;;;;;;8.58;95.62;95655.13;4901051;29;19960;-74
2022/09/30 03:15:10;;;;;;;;;;;;;;;8.55;95.54;95653.78;4896144;29;19949;-74
2022/09/30 03:17:44;;;;;;;;;;;;;;;8.54;95.57;95658.19;4899741;29;20405;-74
2022/09/30 03:20:26;;;;;;;;;;;;;;;8.53;95.49;95655.81;4900303;29;20320;-74
2022/09/30 03:22:58;;;;;;;;;;;;;;;8.50;95.28;95657.06;4900460;29;19955;-74
2022/09/30 03:25:27;;;;;;;;;;;;;;;8.47;95.12;95665.34;4900459;29;19958;-74
2022/09/30 03:27:52;;;;;;;;;;;;;;;8.44;95.21;95673.63;4900353;29;19961;-74
2022/09/30 03:30:21;;;;;;;;;;;;;;;8.43;95.20;95681.69;4900164;29;20371;-74
2022/09/30 03:33:01;;;;;;;;;;;;;;;8.39;94.84;95678.69;4900126;29;19967;-74
2022/09/30 03:35:27;;;;;;;;;;;;;;;8.37;94.76;95677.31;4899166;29;19993;-74
2022/09/30 03:38:07;;;;;;;;;;;;;;;8.33;94.67;95669.13;4899659;29;20203;-75
2022/09/30 03:40:42;;;;;;;;;;;;;;;8.31;94.78;95665.94;4899937;29;20410;-74
2022/09/30 03:43:08;;;;;;;;;;;;;;;8.27;94.81;95670.81;4900110;29;19972;-74
2022/09/30 03:45:37;;;;;;;;;;;;;;;8.24;94.54;95660.81;4899875;29;19964;-74
2022/09/30 03:48:04;;;;;;;;;;;;;;;8.21;94.65;95663.88;4899905;29;20422;-74
2022/09/30 03:50:32;;;;;;;;;;;;;;;8.17;94.42;95662.72;4899786;29;19972;-74
2022/09/30 03:52:58;;;;;;;;;;;;;;;8.14;94.21;95665.75;4898597;29;19957;-74
2022/09/30 03:55:24;;;;;;;;;;;;;;;8.11;94.11;95668.81;4899732;29;19963;-74
2022/09/30 03:57:51;;;;;;;;;;;;;;;8.09;94.12;95671.66;4899739;29;19960;-74
2022/09/30 04:00:17;;;;;;;;;;;;;;;8.05;93.87;95672.31;4899964;29;19950;-74
2022/09/30 04:02:44;;;;;;;;;;;;;;;8.01;93.90;95679.00;4899728;29;19959;-74
2022/09/30 04:05:11;;;;;;;;;;;;;;;7.98;94.07;95685.47;4899764;29;19983;-74
2022/09/30 04:07:37;;;;;;;;;;;;;;;7.97;94.12;95696.13;4899457;29;20039;-74
2022/09/30 04:10:03;;;;;;;;;;;;;;;7.94;94.10;95699.97;4899413;29;19964;-75
2022/09/30 04:12:29;;;;;;;;;;;;;;;7.91;94.28;95703.00;4899495;29;19947;-74
2022/09/30 04:14:55;;;;;;;;;;;;;;;7.87;94.61;95702.66;4899775;29;20422;-74
2022/09/30 04:17:21;;;;;;;;;;;;;;;7.85;95.23;95706.47;4899291;29;19991;-74
2022/09/30 04:19:48;;;;;;;;;;;;;;;7.85;95.66;95706.47;4899518;29;19961;-74
2022/09/30 04:22:14;;;;;;;;;;;;;;;7.84;95.95;95713.53;4899319;29;20424;-74
2022/09/30 04:24:40;;;;;;;;;;;;;;;7.85;96.11;95715.13;4899145;29;19979;-74
2022/09/30 04:27:06;;;;;;;;;;;;;;;7.86;96.21;95713.31;4899502;29;20412;-74
2022/09/30 04:29:32;;;;;;;;;;;;;;;7.88;96.41;95713.91;4899312;29;19957;-75
2022/09/30 04:31:58;;;;;;;;;;;;;;;7.88;96.91;95709.47;4899172;29;20408;-75
2022/09/30 04:34:24;;;;;;;;;;;;;;;7.90;97.29;95707.44;4899209;29;20037;-74
2022/09/30 04:36:49;;;;;;;;;;;;;;;7.92;97.23;95715.06;4899104;29;20028;-74
2022/09/30 04:39:15;;;;;;;;;;;;;;;7.93;97.62;95711.41;4898990;29;20420;-74
2022/09/30 04:41:42;;;;;;;;;;;;;;;7.95;98.13;95716.44;4898955;29;20058;-74
2022/09/30 04:44:08;;;;;;;;;;;;;;;7.97;97.83;95709.16;4899075;29;19960;-75
2022/09/30 04:46:37;;;;;;;;;;;;;;;7.99;97.94;95714.97;4898580;29;19962;-74
2022/09/30 04:49:04;;;;;;;;;;;;;;;8.01;98.33;95720.78;4894609;29;19973;-74
2022/09/30 04:51:30;;;;;;;;;;;;;;;8.03;98.32;95734.41;4895943;29;20349;-75
2022/09/30 04:53:56;;;;;;;;;;;;;;;8.05;98.27;95727.94;4898899;29;20313;-74
2022/09/30 04:56:23;;;;;;;;;;;;;;;8.07;98.57;95736.34;4898763;29;19962;-74
2022/09/30 04:58:49;;;;;;;;;;;;;;;8.10;98.84;95746.34;4897859;29;19955;-74
2022/09/30 05:01:16;;;;;;;;;;;;;;;8.11;99.23;95737.50;4898638;29;20024;-75
2022/09/30 05:03:42;;;;;;;;;;;;;;;8.13;99.63;95742.53;4899047;29;19961;-74
2022/09/30 05:06:09;;;;;;;;;;;;;;;8.09;99.84;95742.16;4898718;29;19974;-74
2022/09/30 05:08:34;;;;;;;;;;;;;;;8.05;99.57;95738.38;4898479;29;19968;-74
2022/09/30 05:11:10;;;;;;;;;;;;;;;8.06;100.00;95747.84;4898626;29;19972;-75
2022/09/30 05:13:37;;;;;;;;;;;;;;;8.06;100.00;95745.22;4898606;29;19956;-74
2022/09/30 05:16:03;;;;;;;;;;;;;;;8.09;99.83;95752.59;4898560;29;19984;-74
2022/09/30 05:18:29;;;;;;;;;;;;;;;8.10;99.65;95748.97;4898608;29;19965;-74
2022/09/30 05:20:56;;;;;;;;;;;;;;;8.14;99.49;95751.94;4898438;29;20349;-74
2022/09/30 05:23:23;;;;;;;;;;;;;;;8.16;99.61;95752.53;4898795;29;19964;-74
2022/09/30 05:25:49;;;;;;;;;;;;;;;8.18;99.23;95747.09;4898364;29;19955;-75
2022/09/30 05:28:16;;;;;;;;;;;;;;;8.19;99.09;95746.06;4898707;29;19957;-74
2022/09/30 05:30:42;;;;;;;;;;;;;;;8.22;99.03;95749.03;4898393;29;19980;-74
2022/09/30 05:33:09;;;;;;;;;;;;;;;8.22;98.95;95743.81;4898618;29;19962;-74
2022/09/30 05:35:34;;;;;;;;;;;;;;;8.23;98.72;95749.81;4898281;29;19956;-75
2022/09/30 05:38:02;;;;;;;;;;;;;;;8.27;99.00;95756.19;4897397;29;19964;-74
2022/09/30 05:40:28;;;;;;;;;;;;;;;8.28;99.01;95758.59;4898547;29;20324;-74
2022/09/30 05:42:58;;;;;;;;;;;;;;;8.29;99.36;95773.28;4898547;29;19952;-74
2022/09/30 05:45:24;;;;;;;;;;;;;;;8.29;99.42;95772.44;4898320;29;19963;-74
2022/09/30 05:47:51;;;;;;;;;;;;;;;8.30;99.65;95774.06;4898221;29;20334;-75
2022/09/30 05:50:18;;;;;;;;;;;;;;;8.30;99.93;95771.44;4898088;29;19966;-74
2022/09/30 05:52:44;;;;;;;;;;;;;;;8.31;99.85;95768.59;4898332;29;20014;-74
2022/09/30 05:55:10;;;;;;;;;;;;;;;8.33;99.90;95773.59;4898157;29;20420;-74
2022/09/30 05:57:36;;;;;;;;;;;;;;;8.33;99.85;95779.63;4899358;29;19961;-75
2022/09/30 06:00:02;;;;;;;;;;;;;;;8.33;99.39;95776.22;4902126;29;19957;-75
2022/09/30 06:02:28;;;;;;;;;;;;;;;8.34;99.78;95781.25;4901674;29;19971;-74
2022/09/30 06:04:54;;;;;;;;;;;;;;;8.37;99.86;95787.03;4902211;29;19961;-75
2022/09/30 06:07:20;;;;;;;;;;;;;;;8.39;99.76;95788.41;4901947;29;19962;-74
2022/09/30 06:09:46;;;;;;;;;;;;;;;8.41;99.26;95783.78;4901776;29;19971;-75
2022/09/30 06:12:12;;;;;;;;;;;;;;;8.41;99.48;95786.41;4901494;29;20046;-74
2022/09/30 06:14:38;;;;;;;;;;;;;;;8.45;98.92;95792.78;4901963;29;19973;-74
2022/09/30 06:17:04;;;;;;;;;;;;;;;8.48;98.69;95788.94;4901525;29;20416;-74
2022/09/30 06:19:30;;;;;;;;;;;;;;;8.50;99.13;95792.13;4901142;29;20338;-74
2022/09/30 06:21:56;;;;;;;;;;;;;;;8.55;99.60;95800.13;4901419;29;19951;-74
2022/09/30 06:24:22;;;;;;;;;;;;;;;8.57;99.56;95800.69;4902118;29;19961;-74
2022/09/30 06:26:48;;;;;;;;;;;;;;;8.60;99.63;95802.06;4897096;29;19973;-74
2022/09/30 06:29:14;;;;;;;;;;;;;;;8.63;99.70;95806.84;4900064;29;20329;-74
2022/09/30 06:31:40;;;;;;;;;;;;;;;8.66;99.87;95809.03;4901489;29;20008;-74
2022/09/30 06:34:06;;;;;;;;;;;;;;;8.71;99.86;95814.38;4901137;29;20004;-74
2022/09/30 06:36:32;;;;;;;;;;;;;;;8.73;99.94;95815.78;4901260;29;19959;-74
2022/09/30 06:38:59;;;;;;;;;;;;;;;8.77;99.21;95821.31;4901101;29;20064;-75
2022/09/30 06:41:26;;;;;;;;;;;;;;;8.79;99.17;95819.28;4900282;29;19957;-74
2022/09/30 06:43:52;;;;;;;;;;;;;;;8.81;98.80;95817.25;4901090;29;19956;-74
2022/09/30 06:46:21;;;;;;;;;;;;;;;8.83;98.43;95830.91;4900820;29;19979;-74
2022/09/30 06:48:47;;;;;;;;;;;;;;;8.85;98.10;95833.31;4900449;29;19957;-74
2022/09/30 06:51:13;;;;;;;;;;;;;;;8.83;98.52;95836.13;4900827;29;20017;-74
2022/09/30 06:53:39;;;;;;;;;;;;;;;8.80;98.53;95838.38;4900886;29;20014;-74
2022/09/30 06:56:05;;;;;;;;;;;;;;;8.76;99.70;95847.69;4901256;29;20436;-74
2022/09/30 06:58:31;;;;;;;;;;;;;;;8.75;99.84;95854.75;4900788;29;19964;-75
2022/09/30 07:01:02;;;;;;;;;;;;;;;8.72;99.93;95858.59;4901068;29;20006;-74
2022/09/30 07:03:29;;;;;;;;;;;;;;;8.71;100.00;95867.47;4900643;29;19969;-74
2022/09/30 07:05:59;;;;;;;;;;;;;;;8.72;99.98;95863.81;4899515;29;20357;-74
2022/09/30 07:08:30;;;;;;;;;;;;;;;8.77;100.00;95870.22;4900962;29;20439;-74
2022/09/30 07:10:57;;;;;;;;;;;;;;;8.78;100.00;95863.94;4900917;29;19956;-74
2022/09/30 07:13:23;;;;;;;;;;;;;;;8.74;100.00;95874.84;4900387;29;20332;-75
2022/09/30 07:15:53;;;;;;;;;;;;;;;8.71;100.00;95870.09;4900517;29;19958;-74
2022/09/30 07:18:23;;;;;;;;;;;;;;;8.69;100.00;95871.31;4900642;29;19957;-74
2022/09/30 07:20:50;;;;;;;;;;;;;;;8.69;100.00;95872.13;4900410;29;19963;-74
2022/09/30 07:23:16;;;;;;;;;;;;;;;8.63;100.00;95880.84;4900356;29;19956;-74
2022/09/30 07:25:59;;;;;;;;;;;;;;;8.64;100.00;95889.47;4899220;29;19997;-74
2022/09/30 07:28:28;;;;;;;;;;;;;;;8.65;100.00;95893.66;4892681;29;19957;-74
2022/09/30 07:30:57;;;;;;;;;;;;;;;8.66;100.00;95887.44;4892129;29;20326;-74
2022/09/30 07:33:25;;;;;;;;;;;;;;;8.66;100.00;95884.81;4900421;29;19972;-74
2022/09/30 07:35:51;;;;;;;;;;;;;;;8.70;100.00;95889.38;4900339;29;20316;-75
2022/09/30 07:38:19;;;;;;;;;;;;;;;8.76;100.00;95890.34;4900133;29;19956;-74
2022/09/30 07:40:51;;;;;;;;;;;;;;;8.79;100.00;95896.94;4900198;29;20336;-74
2022/09/30 07:43:17;;;;;;;;;;;;;;;8.76;100.00;95900.78;4900243;29;19958;-74
2022/09/30 07:45:44;;;;;;;;;;;;;;;8.69;100.00;95898.25;4900385;29;19955;-74
2022/09/30 07:48:36;;;;;;;;;;;;;;;8.65;100.00;95902.31;4900031;29;19969;-74
2022/09/30 07:50:55;;;;;;;;;;;;;;;8.71;100.00;95908.47;4899363;29;19973;-74
2022/09/30 07:53:21;;;;;;;;;;;;;;;8.77;100.00;95904.97;4900000;29;19968;-74
2022/09/30 07:55:47;;;;;;;;;;;;;;;8.86;100.00;95908.91;4899613;29;19953;-74
2022/09/30 07:58:13;;;;;;;;;;;;;;;8.95;100.00;95909.41;4899130;29;20003;-74
2022/09/30 08:00:39;;;;;;;;;;;;;;;9.06;100.00;95920.94;4899863;29;19961;-74
2022/09/30 08:03:05;;;;;;;;;;;;;;;9.13;100.00;95927.69;4899596;29;20020;-74
2022/09/30 08:05:30;;;;;;;;;;;;;;;9.20;100.00;95927.59;4899814;29;19956;-74
2022/09/30 08:07:56;;;;;;;;;;;;;;;9.25;100.00;95926.94;4899758;29;19964;-74
2022/09/30 08:10:22;;;;;;;;;;;;;;;9.28;99.97;95924.69;4899805;29;19960;-74
2022/09/30 08:12:48;;;;;;;;;;;;;;;9.30;100.00;95927.88;4899484;29;19967;-74
2022/09/30 08:15:14;;;;;;;;;;;;;;;9.32;100.00;95931.06;4899538;29;20427;-74
2022/09/30 08:17:40;;;;;;;;;;;;;;;9.36;99.63;95934.00;4898363;29;19955;-75
2022/09/30 08:20:06;;;;;;;;;;;;;;;9.42;99.80;95932.34;4898336;29;19954;-74
2022/09/30 08:22:32;;;;;;;;;;;;;;;9.46;99.60;95939.50;4899398;29;19969;-74
2022/09/30 08:24:57;;;;;;;;;;;;;;;9.51;99.12;95947.50;4899451;29;19963;-74
2022/09/30 08:27:23;;;;;;;;;;;;;;;9.54;98.75;95946.25;4898979;29;20383;-75
2022/09/30 08:29:49;;;;;;;;;;;;;;;9.55;98.51;95947.84;4899655;29;20070;-74
2022/09/30 08:32:15;;;;;;;;;;;;;;;9.61;98.97;95952.19;4899172;29;19980;-74
2022/09/30 08:34:41;;;;;;;;;;;;;;;9.66;98.65;95947.09;4898909;29;20421;-74
2022/09/30 08:37:08;;;;;;;;;;;;;;;9.74;98.91;95948.56;4899445;29;19993;-74
2022/09/30 08:39:37;;;;;;;;;;;;;;;9.84;98.66;95946.19;4898970;29;20350;-74
2022/09/30 08:42:06;;;;;;;;;;;;;;;9.95;97.73;95942.81;4898906;29;19952;-75
2022/09/30 08:44:46;;;;;;;;;;;;;;;10.18;97.20;95940.44;4898958;29;19955;-75
2022/09/30 08:47:27;;;;;;;;;;;;;;;10.49;95.27;95936.72;4897829;29;19961;-74
2022/09/30 08:50:09;;;;;;;;;;;;;;;10.74;94.27;95933.81;4898883;29;19956;-75
2022/09/30 08:52:40;;;;;;;;;;;;;;;10.84;92.22;95926.16;4898419;29;19972;-75
2022/09/30 08:55:07;;;;;;;;;;;;;;;10.92;92.29;95931.06;4899005;29;19958;-75
2022/09/30 08:57:35;;;;;;;;;;;;;;;11.08;91.85;95931.34;4898211;29;19969;-74
2022/09/30 09:00:07;;;;;;;;;;;;;;;11.28;91.19;95934.34;4898669;29;19952;-74
2022/09/30 09:02:36;;;;;;;;;;;;;;;11.46;90.41;95927.31;4885613;29;20408;-74
2022/09/30 09:05:04;;;;;;;;;;;;;;;11.50;90.00;95925.81;4898274;29;19970;-74
2022/09/30 09:07:42;;;;;;;;;;;;;;;11.52;89.87;95921.91;4890887;29;19952;-74
2022/09/30 09:10:22;;;;;;;;;;;;;;;11.51;89.33;95928.19;4898658;29;19958;-74
2022/09/30 09:12:51;;;;;;;;;;;;;;;11.56;90.86;95928.28;4898685;29;19956;-75
2022/09/30 09:15:25;;;;;;;;;;;;;;;11.69;87.11;95921.91;4884762;29;20399;-75
2022/09/30 09:17:57;;;;;;;;;;;;;;;11.83;89.35;95935.56;4898768;29;19959;-74
2022/09/30 09:20:28;;;;;;;;;;;;;;;11.96;89.01;95930.00;4885760;29;20315;-74
2022/09/30 09:22:54;;;;;;;;;;;;;;;12.02;86.33;95924.84;4899018;29;20330;-75
2022/09/30 09:25:26;;;;;;;;;;;;;;;12.10;87.97;95938.38;4898440;29;19985;-75
2022/09/30 09:27:52;;;;;;;;;;;;;;;12.15;86.91;95924.50;4897888;29;19956;-74
2022/09/30 09:30:20;;;;;;;;;;;;;;;12.25;86.11;95923.88;4898407;29;19958;-75
2022/09/30 09:32:50;;;;;;;;;;;;;;;12.33;85.92;95928.72;4901334;29;19989;-75
2022/09/30 09:35:21;;;;;;;;;;;;;;;12.37;86.35;95937.72;4902163;29;19983;-74
2022/09/30 09:40:56;;;;;;;;;;;;;;;12.51;86.37;95941.59;4902150;29;19982;-74
2022/09/30 09:43:47;;;;;;;;;;;;;;;12.62;83.60;95931.19;4901391;29;19958;-75
2022/09/30 09:46:18;;;;;;;;;;;;;;;12.70;84.29;95942.09;4902687;29;19970;-75
2022/09/30 09:48:45;;;;;;;;;;;;;;;12.76;83.65;95940.34;4893793;29;19966;-75
2022/09/30 09:51:17;;;;;;;;;;;;;;;12.73;85.22;95946.09;4901923;29;19962;-75
2022/09/30 09:53:47;;;;;;;;;;;;;;;12.71;85.53;95951.59;4901433;29;20338;-75
2022/09/30 09:56:18;;;;;;;;;;;;;;;12.69;85.50;95952.88;4901799;29;20435;-75
2022/09/30 09:59:08;;;;;;;;;;;;;;;12.68;85.05;95943.38;4902207;29;19958;-74
2022/09/30 10:01:35;;;;;;;;;;;;;;;12.69;82.47;95929.22;4894660;29;19969;-74
2022/09/30 10:04:09;;;;;;;;;;;;;;;12.68;83.19;95938.13;4901811;29;19975;-75
2022/09/30 10:06:43;;;;;;;;;;;;;;;12.58;83.64;95941.44;4901951;29;19951;-74
2022/09/30 10:09:28;;;;;;;;;;;;;;;12.56;83.38;95946.13;4902025;29;19960;-75
2022/09/30 10:12:14;;;;;;;;;;;;;;;12.61;84.69;95963.81;4893514;29;20345;-75
2022/09/30 10:14:56;;;;;;;;;;;;;;;12.64;83.19;95953.63;4901888;29;20413;-75
2022/09/30 10:17:40;;;;;;;;;;;;;;;12.62;84.06;95954.88;4894773;29;19965;-75
2022/09/30 10:20:17;;;;;;;;;;;;;;;12.73;83.54;95948.72;4900413;29;19959;-74
2022/09/30 10:22:43;;;;;;;;;;;;;;;12.88;82.63;95953.38;4901475;29;19955;-75
2022/09/30 10:25:23;;;;;;;;;;;;;;;13.00;83.02;95961.97;4901511;29;19956;-75
2022/09/30 10:27:51;;;;;;;;;;;;;;;13.07;82.86;95957.31;4887351;29;19954;-74
2022/09/30 10:30:52;;;;;;;;;;;;;;;13.18;82.28;95960.84;4901535;29;19971;-74
2022/09/30 10:33:26;;;;;;;;;;;;;;;13.41;77.99;95925.56;4861789;29;19950;-74
2022/09/30 10:35:54;;;;;;;;;;;;;;;13.52;78.12;95945.72;4893604;29;20410;-74
2022/09/30 10:38:21;;;;;;;;;;;;;;;13.42;73.18;95889.50;4901301;29;20000;-74
2022/09/30 10:40:49;;;;;;;;;;;;;;;13.31;79.24;95943.91;4901037;29;19948;-74
2022/09/30 10:43:38;;;;;;;;;;;;;;;13.12;77.31;95936.31;4900885;29;19952;-74
2022/09/30 10:46:04;;;;;;;;;;;;;;;13.04;80.17;95960.44;4901079;29;19954;-75
2022/09/30 10:48:32;;;;;;;;;;;;;;;13.23;79.86;95957.47;4901069;29;20565;-75
2022/09/30 10:50:58;;;;;;;;;;;;;;;13.50;77.11;95916.19;4901145;29;20430;-75
2022/09/30 10:53:29;;;;;;;;;;;;;;;13.56;77.67;95938.88;4900909;29;19972;-74
2022/09/30 10:55:56;;;;;;;;;;;;;;;13.59;73.24;95898.88;4901286;29;20279;-74
2022/09/30 10:58:37;;;;;;;;;;;;;;;13.60;75.02;95910.22;4900851;29;19965;-74
2022/09/30 11:01:20;;;;;;;;;;;;;;;13.88;76.07;95932.06;4900809;29;19953;-75
2022/09/30 11:03:56;;;;;;;;;;;;;;;14.30;77.58;95941.84;4900798;29;19957;-75
2022/09/30 11:06:23;;;;;;;;;;;;;;;14.51;77.80;95934.88;4900799;29;19952;-75
2022/09/30 11:09:09;;;;;;;;;;;;;;;14.50;73.78;95907.69;4900898;29;19985;-74
2022/09/30 11:12:01;;;;;;;;;;;;;;;14.60;72.73;95886.66;4890312;29;19977;-75
2022/09/30 11:14:46;;;;;;;;;;;;;;;14.91;70.08;95862.22;4897874;29;20295;-75
2022/09/30 11:17:30;;;;;;;;;;;;;;;15.15;68.09;95847.50;4900577;29;19965;-74
2022/09/30 11:20:25;;;;;;;;;;;;;;;15.22;63.96;95813.75;4900374;29;19970;-74
2022/09/30 11:22:55;;;;;;;;;;;;;;;15.08;67.83;95856.75;4888142;29;19954;-75
2022/09/30 11:25:25;;;;;;;;;;;;;;;15.06;71.49;95901.91;4887904;29;19956;-75
2022/09/30 11:27:57;;;;;;;;;;;;;;;15.35;70.42;95890.88;4900471;29;19960;-75
2022/09/30 11:30:30;;;;;;;;;;;;;;;15.69;68.64;95866.63;4900325;29;19963;-74
2022/09/30 11:33:04;;;;;;;;;;;;;;;15.97;67.64;95862.66;4900709;29;20090;-75
2022/09/30 11:35:48;;;;;;;;;;;;;;;16.00;67.18;95865.56;4900288;29;20420;-74
2022/09/30 11:38:14;;;;;;;;;;;;;;;15.66;65.95;95862.63;4900170;29;20439;-74
2022/09/30 11:41:03;;;;;;;;;;;;;;;15.37;68.30;95883.47;4900312;29;19962;-74
2022/09/30 11:43:40;;;;;;;;;;;;;;;15.29;65.89;95871.59;4900721;29;19959;-74
2022/09/30 11:46:11;;;;;;;;;;;;;;;15.30;70.28;95914.66;4900259;29;19955;-74
2022/09/30 11:48:42;;;;;;;;;;;;;;;15.46;66.01;95867.91;4900038;29;19962;-74
2022/09/30 11:51:15;;;;;;;;;;;;;;;15.73;65.41;95863.19;4899867;29;19950;-74
2022/09/30 11:53:53;;;;;;;;;;;;;;;15.97;67.83;95881.16;4899634;29;19952;-74
2022/09/30 11:56:25;;;;;;;;;;;;;;;16.20;68.17;95877.97;4890305;29;19958;-74
2022/09/30 11:58:56;;;;;;;;;;;;;;;16.05;63.17;95840.16;4899570;29;20339;-74
2022/09/30 12:01:32;;;;;;;;;;;;;;;15.87;65.70;95874.03;4900385;29;20435;-74
2022/09/30 12:04:07;;;;;;;;;;;;;;;15.82;66.21;95882.75;4899847;29;19963;-74
2022/09/30 12:06:48;;;;;;;;;;;;;;;15.88;62.18;95848.41;4899657;29;19958;-74
2022/09/30 12:09:23;;;;;;;;;;;;;;;15.75;65.12;95873.53;4899009;29;19957;-74
2022/09/30 12:11:53;;;;;;;;;;;;;;;15.67;65.65;95887.22;4889902;29;20418;-74
2022/09/30 12:14:24;;;;;;;;;;;;;;;15.53;62.28;95849.94;4899244;29;19954;-74
2022/09/30 12:16:50;;;;;;;;;;;;;;;15.56;60.53;95830.91;4899842;29;19958;-74
2022/09/30 12:19:19;;;;;;;;;;;;;;;15.70;67.58;95905.19;4899402;29;19956;-74
2022/09/30 12:22:00;;;;;;;;;;;;;;;15.86;60.30;95832.78;4899180;29;19957;-74
2022/09/30 12:24:32;;;;;;;;;;;;;;;15.92;61.33;95858.16;4898868;29;19952;-74
2022/09/30 12:27:00;;;;;;;;;;;;;;;15.90;63.75;95867.44;4887932;29;19966;-74
2022/09/30 12:32:36;;;;;;;;;;;;;;;16.13;61.87;95850.22;4899588;29;20367;-74
2022/09/30 12:35:18;;;;;;;;;;;;;;;16.15;58.20;95821.66;4899493;29;19965;-74
2022/09/30 12:38:04;;;;;;;;;;;;;;;16.16;63.64;95873.47;4888482;29;19957;-74
2022/09/30 12:40:32;;;;;;;;;;;;;;;16.38;61.62;95858.09;4899126;29;19958;-74
2022/09/30 12:43:10;;;;;;;;;;;;;;;16.61;60.54;95861.19;4899026;29;19958;-74
2022/09/30 12:45:55;;;;;;;;;;;;;;;16.61;62.57;95882.38;4899058;29;20429;-74
2022/09/30 12:48:25;;;;;;;;;;;;;;;16.56;62.01;95877.09;4899004;29;20336;-74
2022/09/30 12:50:54;;;;;;;;;;;;;;;16.51;62.24;95888.47;4899288;29;19961;-74
2022/09/30 12:53:31;;;;;;;;;;;;;;;16.40;57.04;95841.94;4898737;29;19978;-74
2022/09/30 12:56:08;;;;;;;;;;;;;;;16.29;59.25;95858.88;4899283;29;20421;-74
2022/09/30 12:58:45;;;;;;;;;;;;;;;16.07;60.81;95875.88;4898208;29;19954;-74
2022/09/30 13:01:16;;;;;;;;;;;;;;;15.89;58.93;95858.69;4884524;29;19951;-74
2022/09/30 13:03:48;;;;;;;;;;;;;;;15.78;61.71;95899.41;4898842;29;19960;-74
2022/09/30 13:06:15;;;;;;;;;;;;;;;15.54;62.03;95894.63;4898376;29;19957;-74
2022/09/30 13:09:05;;;;;;;;;;;;;;;15.51;64.49;95926.84;4898631;29;19960;-74
2022/09/30 13:11:43;;;;;;;;;;;;;;;15.38;59.55;95888.50;4898669;29;19965;-74
2022/09/30 13:14:24;;;;;;;;;;;;;;;15.30;63.62;95915.44;4889235;29;19954;-74
2022/09/30 13:16:57;;;;;;;;;;;;;;;15.31;62.55;95919.69;4889419;29;19956;-74